BVX177 ENSB-ENTC
Flight info
| Callsign | BVX177 |
|---|---|
| Flight time | 1h 18m |
| Altitude | 37000 |
| Route | AMPIS P853 LOMVI |
| Aircraft | A319/M-SDE3FGHIRWY/LB1 |
Departure
| Time | 2026-05-07 12:08 |
|---|---|
| Airport | Svalbard Airport, Longyear (ENSB) |
Arrival
| Time | 2026-05-07 13:27 |
|---|---|
| Airport | Tromsø Airport (ENTC) |
| Time | Latitude | Longitude | Altitude | Speed | Heading |
|---|---|---|---|---|---|
| 2026-05-07 11:48 | 78.24632 | 15.49285 | 96 ft | 0 kts | 78° |
| 2026-05-07 12:03 | 78.24632 | 15.49291 | 95 ft | 1 kts | 79° |
| 2026-05-07 12:04 | 78.24627 | 15.49352 | 99 ft | 3 kts | 115° |
| 2026-05-07 12:04 | 78.24587 | 15.49498 | 97 ft | 11 kts | 155° |
| 2026-05-07 12:04 | 78.24497 | 15.49437 | 94 ft | 11 kts | 197° |
| 2026-05-07 12:04 | 78.24467 | 15.49158 | 95 ft | 11 kts | 281° |
| 2026-05-07 12:05 | 78.24489 | 15.48768 | 97 ft | 13 kts | 285° |
| 2026-05-07 12:05 | 78.24515 | 15.48314 | 98 ft | 15 kts | 285° |
| 2026-05-07 12:05 | 78.24545 | 15.47775 | 98 ft | 18 kts | 285° |
| 2026-05-07 12:05 | 78.24581 | 15.47129 | 96 ft | 22 kts | 285° |
| 2026-05-07 12:06 | 78.24625 | 15.46353 | 94 ft | 26 kts | 285° |
| 2026-05-07 12:06 | 78.24676 | 15.45439 | 90 ft | 30 kts | 285° |
| 2026-05-07 12:06 | 78.24733 | 15.44407 | 87 ft | 34 kts | 285° |
| 2026-05-07 12:06 | 78.24800 | 15.43219 | 83 ft | 39 kts | 285° |
| 2026-05-07 12:07 | 78.24863 | 15.42090 | 78 ft | 31 kts | 285° |
| 2026-05-07 12:07 | 78.24896 | 15.41359 | 70 ft | 14 kts | 268° |
| 2026-05-07 12:07 | 78.24926 | 15.41254 | 75 ft | 7 kts | 80° |
| 2026-05-07 12:07 | 78.24897 | 15.41482 | 67 ft | 9 kts | 107° |
| 2026-05-07 12:08 | 78.24874 | 15.41898 | 77 ft | 26 kts | 105° |
| 2026-05-07 12:08 | 78.24764 | 15.43855 | 89 ft | 91 kts | 105° |
| 2026-05-07 12:08 | 78.24543 | 15.47787 | 165 ft | 140 kts | 106° |
| 2026-05-07 12:08 | 78.24283 | 15.52342 | 854 ft | 138 kts | 105° |
| 2026-05-07 12:09 | 78.24028 | 15.56891 | 1637 ft | 138 kts | 105° |
| 2026-05-07 12:09 | 78.23773 | 15.61431 | 2380 ft | 138 kts | 104° |
| 2026-05-07 12:09 | 78.23519 | 15.65983 | 3000 ft | 139 kts | 104° |
| 2026-05-07 12:09 | 78.23079 | 15.70357 | 3465 ft | 154 kts | 126° |
| 2026-05-07 12:10 | 78.22403 | 15.74831 | 3841 ft | 177 kts | 124° |
| 2026-05-07 12:10 | 78.21632 | 15.80007 | 4253 ft | 200 kts | 124° |
| 2026-05-07 12:10 | 78.20770 | 15.85814 | 4760 ft | 221 kts | 124° |
| 2026-05-07 12:10 | 78.19820 | 15.92226 | 5326 ft | 245 kts | 124° |
| 2026-05-07 12:11 | 78.18793 | 15.99149 | 6244 ft | 256 kts | 124° |
| 2026-05-07 12:11 | 78.17736 | 16.06272 | 7267 ft | 262 kts | 123° |
| 2026-05-07 12:11 | 78.16719 | 16.13732 | 8279 ft | 266 kts | 121° |
| 2026-05-07 12:11 | 78.15734 | 16.21442 | 9298 ft | 270 kts | 120° |
| 2026-05-07 12:12 | 78.14749 | 16.29313 | 10323 ft | 274 kts | 119° |
| 2026-05-07 12:12 | 78.13724 | 16.37493 | 10822 ft | 295 kts | 120° |
| 2026-05-07 12:12 | 78.12606 | 16.46309 | 11154 ft | 319 kts | 120° |
| 2026-05-07 12:12 | 78.11392 | 16.55752 | 11547 ft | 337 kts | 120° |
| 2026-05-07 12:13 | 78.10144 | 16.65339 | 12256 ft | 344 kts | 121° |
| 2026-05-07 12:13 | 78.08850 | 16.75169 | 13047 ft | 348 kts | 121° |
| 2026-05-07 12:13 | 78.07536 | 16.85101 | 13836 ft | 352 kts | 121° |
| 2026-05-07 12:13 | 78.06206 | 16.95122 | 14568 ft | 356 kts | 121° |
| 2026-05-07 12:14 | 78.04859 | 17.05245 | 15250 ft | 360 kts | 121° |
| 2026-05-07 12:14 | 78.03493 | 17.15463 | 15955 ft | 364 kts | 121° |
| 2026-05-07 12:14 | 78.02105 | 17.25729 | 16663 ft | 368 kts | 121° |
| 2026-05-07 12:14 | 78.00694 | 17.36092 | 17358 ft | 372 kts | 121° |
| 2026-05-07 12:15 | 77.99266 | 17.46549 | 18057 ft | 376 kts | 122° |
| 2026-05-07 12:15 | 77.97609 | 17.56419 | 18723 ft | 383 kts | 133° |
| 2026-05-07 12:15 | 77.95541 | 17.64602 | 19332 ft | 390 kts | 144° |
| 2026-05-07 12:15 | 77.93129 | 17.70691 | 19961 ft | 396 kts | 156° |
| 2026-05-07 12:16 | 77.90466 | 17.74314 | 20558 ft | 402 kts | 168° |
| 2026-05-07 12:16 | 77.87672 | 17.75823 | 21164 ft | 406 kts | 172° |
| 2026-05-07 12:16 | 77.84848 | 17.77165 | 21739 ft | 409 kts | 172° |
| 2026-05-07 12:16 | 77.82000 | 17.78546 | 22285 ft | 413 kts | 172° |
| 2026-05-07 12:17 | 77.79134 | 17.79951 | 22814 ft | 416 kts | 172° |
| 2026-05-07 12:17 | 77.76284 | 17.81345 | 23352 ft | 419 kts | 172° |
| 2026-05-07 12:17 | 77.73370 | 17.82760 | 23889 ft | 422 kts | 172° |
| 2026-05-07 12:17 | 77.70436 | 17.84166 | 24334 ft | 425 kts | 172° |
| 2026-05-07 12:18 | 77.67480 | 17.85560 | 24770 ft | 428 kts | 172° |
| 2026-05-07 12:18 | 77.64500 | 17.86964 | 25192 ft | 431 kts | 172° |
| 2026-05-07 12:18 | 77.61503 | 17.88378 | 25619 ft | 434 kts | 172° |
| 2026-05-07 12:18 | 77.58487 | 17.89779 | 26043 ft | 437 kts | 172° |
| 2026-05-07 12:19 | 77.55451 | 17.91174 | 26460 ft | 440 kts | 172° |
| 2026-05-07 12:19 | 77.52392 | 17.92583 | 26860 ft | 443 kts | 172° |
| 2026-05-07 12:19 | 77.49316 | 17.93994 | 27246 ft | 446 kts | 173° |
| 2026-05-07 12:19 | 77.46217 | 17.95409 | 27640 ft | 448 kts | 173° |
| 2026-05-07 12:20 | 77.43103 | 17.96840 | 28006 ft | 451 kts | 172° |
| 2026-05-07 12:20 | 77.40007 | 17.98275 | 28369 ft | 454 kts | 172° |
| 2026-05-07 12:20 | 77.36852 | 17.99732 | 28727 ft | 457 kts | 173° |
| 2026-05-07 12:20 | 77.33686 | 18.01192 | 29096 ft | 459 kts | 173° |
| 2026-05-07 12:21 | 77.30496 | 18.02639 | 29458 ft | 461 kts | 173° |
| 2026-05-07 12:21 | 77.27298 | 18.04055 | 29821 ft | 463 kts | 173° |
| 2026-05-07 12:21 | 77.24092 | 18.05465 | 30322 ft | 462 kts | 173° |
| 2026-05-07 12:21 | 77.20893 | 18.06903 | 30738 ft | 462 kts | 173° |
| 2026-05-07 12:22 | 77.17696 | 18.08369 | 31104 ft | 462 kts | 173° |
| 2026-05-07 12:22 | 77.14498 | 18.09834 | 31470 ft | 462 kts | 173° |
| 2026-05-07 12:22 | 77.11299 | 18.11295 | 31835 ft | 462 kts | 173° |
| 2026-05-07 12:22 | 77.08101 | 18.12749 | 32207 ft | 463 kts | 173° |
| 2026-05-07 12:23 | 77.04897 | 18.14184 | 32582 ft | 463 kts | 173° |
| 2026-05-07 12:23 | 77.01694 | 18.15600 | 32955 ft | 463 kts | 173° |
| 2026-05-07 12:23 | 76.98486 | 18.17004 | 33325 ft | 463 kts | 173° |
| 2026-05-07 12:23 | 76.95274 | 18.18399 | 33705 ft | 463 kts | 173° |
| 2026-05-07 12:24 | 76.92067 | 18.19787 | 34086 ft | 463 kts | 173° |
| 2026-05-07 12:24 | 76.88860 | 18.21169 | 34445 ft | 463 kts | 173° |
| 2026-05-07 12:24 | 76.85649 | 18.22550 | 34751 ft | 464 kts | 173° |
| 2026-05-07 12:24 | 76.82443 | 18.23932 | 35079 ft | 464 kts | 173° |
| 2026-05-07 12:25 | 76.79228 | 18.25333 | 35392 ft | 464 kts | 173° |
| 2026-05-07 12:25 | 76.76011 | 18.26731 | 35670 ft | 465 kts | 173° |
| 2026-05-07 12:25 | 76.72791 | 18.28122 | 35986 ft | 465 kts | 173° |
| 2026-05-07 12:25 | 76.69618 | 18.29470 | 36300 ft | 464 kts | 173° |
| 2026-05-07 12:26 | 76.66401 | 18.30818 | 36595 ft | 464 kts | 173° |
| 2026-05-07 12:26 | 76.63146 | 18.32184 | 36919 ft | 464 kts | 173° |
| 2026-05-07 12:26 | 76.59936 | 18.33521 | 37195 ft | 464 kts | 173° |
| 2026-05-07 12:27 | 76.53560 | 18.36162 | 37290 ft | 462 kts | 173° |
| 2026-05-07 12:27 | 76.47167 | 18.38753 | 37291 ft | 462 kts | 173° |
| 2026-05-07 12:28 | 76.40765 | 18.41346 | 37285 ft | 461 kts | 173° |
| 2026-05-07 12:28 | 76.34376 | 18.43837 | 37285 ft | 461 kts | 174° |
| 2026-05-07 12:29 | 76.27998 | 18.46271 | 37281 ft | 460 kts | 173° |
| 2026-05-07 12:29 | 76.21615 | 18.48692 | 37271 ft | 460 kts | 173° |
| 2026-05-07 12:30 | 76.15267 | 18.51098 | 37273 ft | 461 kts | 173° |
| 2026-05-07 12:30 | 76.08881 | 18.53490 | 37269 ft | 461 kts | 173° |
| 2026-05-07 12:31 | 76.02486 | 18.55856 | 37274 ft | 461 kts | 174° |
| 2026-05-07 12:31 | 75.96098 | 18.58213 | 37275 ft | 461 kts | 174° |
| 2026-05-07 12:32 | 75.89709 | 18.60562 | 37270 ft | 461 kts | 173° |
| 2026-05-07 12:32 | 75.84393 | 18.62483 | 37269 ft | 461 kts | 174° |
| 2026-05-07 12:33 | 75.74801 | 18.65880 | 37270 ft | 461 kts | 174° |
| 2026-05-07 12:33 | 75.68409 | 18.68143 | 37270 ft | 461 kts | 174° |
| 2026-05-07 12:34 | 75.62012 | 18.70416 | 37268 ft | 461 kts | 174° |
| 2026-05-07 12:34 | 75.55616 | 18.72634 | 37263 ft | 462 kts | 174° |
| 2026-05-07 12:35 | 75.49215 | 18.74811 | 37267 ft | 461 kts | 174° |
| 2026-05-07 12:35 | 75.42859 | 18.76983 | 37262 ft | 461 kts | 174° |
| 2026-05-07 12:36 | 75.36466 | 18.79180 | 37264 ft | 461 kts | 174° |
| 2026-05-07 12:36 | 75.30069 | 18.81324 | 37252 ft | 461 kts | 174° |
| 2026-05-07 12:37 | 75.23677 | 18.83432 | 37252 ft | 461 kts | 174° |
| 2026-05-07 12:37 | 75.17275 | 18.85539 | 37252 ft | 461 kts | 174° |
| 2026-05-07 12:38 | 75.10917 | 18.87631 | 37245 ft | 461 kts | 174° |
| 2026-05-07 12:38 | 75.04521 | 18.89730 | 37248 ft | 461 kts | 174° |
| 2026-05-07 12:39 | 74.98131 | 18.91774 | 37245 ft | 461 kts | 174° |
| 2026-05-07 12:39 | 74.91732 | 18.93793 | 37245 ft | 461 kts | 174° |
| 2026-05-07 12:40 | 74.85340 | 18.95812 | 37238 ft | 461 kts | 174° |
| 2026-05-07 12:40 | 74.78941 | 18.97832 | 37228 ft | 461 kts | 174° |
| 2026-05-07 12:41 | 74.72585 | 18.99817 | 37230 ft | 461 kts | 174° |
| 2026-05-07 12:41 | 74.66183 | 19.01815 | 37228 ft | 461 kts | 174° |
| 2026-05-07 12:42 | 74.59779 | 19.03777 | 37234 ft | 461 kts | 174° |
| 2026-05-07 12:42 | 74.53380 | 19.05709 | 37233 ft | 462 kts | 174° |
| 2026-05-07 12:43 | 74.46976 | 19.07633 | 37224 ft | 462 kts | 173° |
| 2026-05-07 12:43 | 74.40572 | 19.09562 | 37225 ft | 462 kts | 174° |
| 2026-05-07 12:44 | 74.34162 | 19.11463 | 37222 ft | 462 kts | 174° |
| 2026-05-07 12:44 | 74.27758 | 19.13349 | 37223 ft | 461 kts | 174° |
| 2026-05-07 12:45 | 74.21358 | 19.15228 | 37213 ft | 461 kts | 174° |
| 2026-05-07 12:45 | 74.14960 | 19.17052 | 37212 ft | 461 kts | 174° |
| 2026-05-07 12:46 | 74.08561 | 19.18880 | 37209 ft | 461 kts | 174° |
| 2026-05-07 12:46 | 74.02207 | 19.20708 | 37209 ft | 461 kts | 174° |
| 2026-05-07 12:47 | 73.95812 | 19.22517 | 37212 ft | 461 kts | 174° |
| 2026-05-07 12:47 | 73.89413 | 19.24324 | 37200 ft | 461 kts | 174° |
| 2026-05-07 12:48 | 73.83012 | 19.26119 | 37197 ft | 461 kts | 174° |
| 2026-05-07 12:48 | 73.76620 | 19.27894 | 37185 ft | 461 kts | 174° |
| 2026-05-07 12:49 | 73.70228 | 19.29664 | 37189 ft | 461 kts | 174° |
| 2026-05-07 12:49 | 73.63831 | 19.31392 | 37191 ft | 461 kts | 174° |
| 2026-05-07 12:50 | 73.57430 | 19.33108 | 37180 ft | 461 kts | 174° |
| 2026-05-07 12:50 | 73.51031 | 19.34820 | 37181 ft | 461 kts | 174° |
| 2026-05-07 12:51 | 73.44676 | 19.36513 | 37178 ft | 461 kts | 174° |
| 2026-05-07 12:51 | 73.38274 | 19.38188 | 37177 ft | 461 kts | 174° |
| 2026-05-07 12:52 | 73.31874 | 19.39869 | 37183 ft | 461 kts | 174° |
| 2026-05-07 12:52 | 73.25471 | 19.41547 | 37174 ft | 461 kts | 174° |
| 2026-05-07 12:53 | 73.19047 | 19.43196 | 37173 ft | 461 kts | 174° |
| 2026-05-07 12:53 | 73.12646 | 19.44839 | 37167 ft | 461 kts | 174° |
| 2026-05-07 12:54 | 73.06294 | 19.46454 | 37173 ft | 461 kts | 174° |
| 2026-05-07 12:54 | 72.99894 | 19.48090 | 37163 ft | 460 kts | 174° |
| 2026-05-07 12:55 | 72.93501 | 19.49666 | 37160 ft | 460 kts | 174° |
| 2026-05-07 12:55 | 72.87109 | 19.51243 | 37158 ft | 460 kts | 175° |
| 2026-05-07 12:56 | 72.80728 | 19.52818 | 37151 ft | 460 kts | 174° |
| 2026-05-07 12:56 | 72.74391 | 19.54386 | 37150 ft | 460 kts | 174° |
| 2026-05-07 12:57 | 72.68004 | 19.55924 | 37146 ft | 460 kts | 175° |
| 2026-05-07 12:57 | 72.61627 | 19.57479 | 37142 ft | 459 kts | 175° |
| 2026-05-07 12:58 | 72.55252 | 19.59028 | 37132 ft | 459 kts | 175° |
| 2026-05-07 12:58 | 72.48877 | 19.60554 | 37129 ft | 459 kts | 175° |
| 2026-05-07 12:59 | 72.42504 | 19.62041 | 37127 ft | 459 kts | 174° |
| 2026-05-07 12:59 | 72.36129 | 19.63534 | 37122 ft | 459 kts | 175° |
| 2026-05-07 13:00 | 72.29791 | 19.65021 | 37124 ft | 459 kts | 175° |
| 2026-05-07 13:00 | 72.23415 | 19.66523 | 37119 ft | 459 kts | 175° |
| 2026-05-07 13:01 | 72.17037 | 19.67998 | 37119 ft | 459 kts | 175° |
| 2026-05-07 13:01 | 72.10664 | 19.69445 | 37118 ft | 459 kts | 175° |
| 2026-05-07 13:02 | 72.04307 | 19.67938 | 37109 ft | 459 kts | 188° |
| 2026-05-07 13:02 | 71.97991 | 19.64724 | 37106 ft | 460 kts | 188° |
| 2026-05-07 13:03 | 71.91666 | 19.61553 | 37097 ft | 460 kts | 188° |
| 2026-05-07 13:03 | 71.85390 | 19.58433 | 37097 ft | 460 kts | 188° |
| 2026-05-07 13:04 | 71.79066 | 19.55293 | 37096 ft | 460 kts | 188° |
| 2026-05-07 13:04 | 71.72741 | 19.52148 | 37095 ft | 460 kts | 188° |
| 2026-05-07 13:05 | 71.66420 | 19.49075 | 37090 ft | 460 kts | 188° |
| 2026-05-07 13:05 | 71.60089 | 19.46030 | 37095 ft | 460 kts | 188° |
| 2026-05-07 13:06 | 71.53755 | 19.42993 | 37087 ft | 460 kts | 188° |
| 2026-05-07 13:06 | 71.47421 | 19.39945 | 37091 ft | 460 kts | 188° |
| 2026-05-07 13:07 | 71.41085 | 19.36925 | 37096 ft | 460 kts | 188° |
| 2026-05-07 13:07 | 71.34791 | 19.33936 | 37091 ft | 460 kts | 188° |
| 2026-05-07 13:08 | 71.28453 | 19.30981 | 36891 ft | 460 kts | 188° |
| 2026-05-07 13:08 | 71.25276 | 19.29503 | 36167 ft | 464 kts | 188° |
| 2026-05-07 13:08 | 71.22061 | 19.28007 | 35395 ft | 469 kts | 188° |
| 2026-05-07 13:09 | 71.18823 | 19.26502 | 34601 ft | 473 kts | 188° |
| 2026-05-07 13:09 | 71.15579 | 19.24991 | 34061 ft | 470 kts | 188° |
| 2026-05-07 13:09 | 71.12343 | 19.23486 | 33199 ft | 470 kts | 188° |
| 2026-05-07 13:09 | 71.09105 | 19.21987 | 32372 ft | 470 kts | 188° |
| 2026-05-07 13:10 | 71.05875 | 19.20499 | 31558 ft | 469 kts | 188° |
| 2026-05-07 13:10 | 71.02647 | 19.19029 | 30735 ft | 469 kts | 188° |
| 2026-05-07 13:10 | 70.99421 | 19.17582 | 29843 ft | 468 kts | 188° |
| 2026-05-07 13:10 | 70.96204 | 19.16155 | 28732 ft | 467 kts | 188° |
| 2026-05-07 13:11 | 70.93023 | 19.14748 | 27571 ft | 468 kts | 188° |
| 2026-05-07 13:11 | 70.89800 | 19.13315 | 26363 ft | 469 kts | 189° |
| 2026-05-07 13:11 | 70.86583 | 19.11875 | 25366 ft | 465 kts | 189° |
| 2026-05-07 13:11 | 70.83386 | 19.10436 | 24366 ft | 462 kts | 189° |
| 2026-05-07 13:12 | 70.80222 | 19.09012 | 23464 ft | 457 kts | 189° |
| 2026-05-07 13:12 | 70.77101 | 19.07616 | 22445 ft | 450 kts | 189° |
| 2026-05-07 13:12 | 70.74022 | 19.06249 | 21441 ft | 444 kts | 190° |
| 2026-05-07 13:12 | 70.70980 | 19.04910 | 20450 ft | 439 kts | 189° |
| 2026-05-07 13:13 | 70.67970 | 19.03592 | 19654 ft | 432 kts | 189° |
| 2026-05-07 13:13 | 70.65028 | 19.02307 | 18933 ft | 423 kts | 189° |
| 2026-05-07 13:13 | 70.62139 | 19.01188 | 18228 ft | 415 kts | 185° |
| 2026-05-07 13:13 | 70.59275 | 19.01044 | 17554 ft | 407 kts | 181° |
| 2026-05-07 13:14 | 70.56474 | 19.01022 | 16898 ft | 398 kts | 182° |
| 2026-05-07 13:14 | 70.53730 | 19.00986 | 16322 ft | 390 kts | 182° |
| 2026-05-07 13:14 | 70.51069 | 19.00944 | 15731 ft | 384 kts | 183° |
| 2026-05-07 13:14 | 70.48422 | 19.00892 | 15148 ft | 377 kts | 183° |
| 2026-05-07 13:15 | 70.45815 | 19.00840 | 14550 ft | 371 kts | 183° |
| 2026-05-07 13:15 | 70.43253 | 19.00795 | 13956 ft | 366 kts | 183° |
| 2026-05-07 13:15 | 70.40720 | 19.00753 | 13309 ft | 361 kts | 183° |
| 2026-05-07 13:15 | 70.38229 | 19.00712 | 12683 ft | 355 kts | 182° |
| 2026-05-07 13:16 | 70.35774 | 19.00668 | 12069 ft | 350 kts | 182° |
| 2026-05-07 13:16 | 70.33362 | 19.00630 | 11442 ft | 346 kts | 182° |
| 2026-05-07 13:16 | 70.30971 | 19.00599 | 11021 ft | 337 kts | 182° |
| 2026-05-07 13:16 | 70.28683 | 19.00578 | 10880 ft | 321 kts | 182° |
| 2026-05-07 13:17 | 70.26497 | 19.00557 | 10751 ft | 307 kts | 182° |
| 2026-05-07 13:17 | 70.24405 | 19.00530 | 10622 ft | 295 kts | 182° |
| 2026-05-07 13:17 | 70.22391 | 19.00499 | 10428 ft | 287 kts | 182° |
| 2026-05-07 13:17 | 70.20431 | 19.00466 | 10167 ft | 283 kts | 182° |
| 2026-05-07 13:18 | 70.18470 | 19.00429 | 9922 ft | 281 kts | 182° |
| 2026-05-07 13:18 | 70.16517 | 19.00391 | 9759 ft | 279 kts | 182° |
| 2026-05-07 13:18 | 70.14581 | 19.00352 | 9391 ft | 278 kts | 182° |
| 2026-05-07 13:18 | 70.12652 | 19.00314 | 9045 ft | 276 kts | 182° |
| 2026-05-07 13:19 | 70.10736 | 19.00283 | 8688 ft | 275 kts | 182° |
| 2026-05-07 13:19 | 70.08828 | 19.00274 | 8341 ft | 274 kts | 179° |
| 2026-05-07 13:19 | 70.06949 | 19.01087 | 7936 ft | 272 kts | 168° |
| 2026-05-07 13:19 | 70.05101 | 19.02253 | 7403 ft | 273 kts | 168° |
| 2026-05-07 13:20 | 70.03228 | 19.03429 | 6871 ft | 273 kts | 168° |
| 2026-05-07 13:20 | 70.01407 | 19.04569 | 6624 ft | 260 kts | 168° |
| 2026-05-07 13:20 | 69.99694 | 19.05635 | 6486 ft | 244 kts | 168° |
| 2026-05-07 13:20 | 69.98088 | 19.06632 | 6385 ft | 228 kts | 168° |
| 2026-05-07 13:21 | 69.96577 | 19.07568 | 6288 ft | 218 kts | 168° |
| 2026-05-07 13:21 | 69.95102 | 19.08478 | 6190 ft | 216 kts | 168° |
| 2026-05-07 13:21 | 69.93618 | 19.08972 | 6077 ft | 215 kts | 187° |
| 2026-05-07 13:21 | 69.92143 | 19.08057 | 5751 ft | 218 kts | 194° |
| 2026-05-07 13:22 | 69.90690 | 19.07010 | 5440 ft | 217 kts | 194° |
| 2026-05-07 13:22 | 69.89229 | 19.05997 | 5144 ft | 215 kts | 193° |
| 2026-05-07 13:22 | 69.87791 | 19.05015 | 4999 ft | 207 kts | 193° |
| 2026-05-07 13:22 | 69.86417 | 19.04080 | 4836 ft | 200 kts | 193° |
| 2026-05-07 13:23 | 69.85083 | 19.03174 | 4513 ft | 194 kts | 193° |
| 2026-05-07 13:23 | 69.83779 | 19.02290 | 4164 ft | 190 kts | 193° |
| 2026-05-07 13:23 | 69.82499 | 19.01422 | 3798 ft | 187 kts | 193° |
| 2026-05-07 13:23 | 69.81245 | 19.00574 | 3467 ft | 185 kts | 193° |
| 2026-05-07 13:24 | 69.79993 | 18.99728 | 3126 ft | 184 kts | 193° |
| 2026-05-07 13:24 | 69.78753 | 18.98890 | 2798 ft | 180 kts | 193° |
| 2026-05-07 13:24 | 69.77549 | 18.98078 | 2441 ft | 175 kts | 193° |
| 2026-05-07 13:24 | 69.76394 | 18.97301 | 2127 ft | 163 kts | 193° |
| 2026-05-07 13:25 | 69.75351 | 18.96600 | 1831 ft | 146 kts | 194° |
| 2026-05-07 13:25 | 69.74402 | 18.95963 | 1548 ft | 135 kts | 194° |
| 2026-05-07 13:25 | 69.73517 | 18.95369 | 1297 ft | 130 kts | 194° |
| 2026-05-07 13:25 | 69.72650 | 18.94787 | 1050 ft | 126 kts | 194° |
| 2026-05-07 13:26 | 69.71800 | 18.94220 | 807 ft | 125 kts | 193° |
| 2026-05-07 13:26 | 69.70958 | 18.93667 | 587 ft | 124 kts | 193° |
| 2026-05-07 13:26 | 69.70119 | 18.93101 | 347 ft | 123 kts | 194° |
| 2026-05-07 13:26 | 69.69282 | 18.92524 | 118 ft | 124 kts | 194° |
| 2026-05-07 13:27 | 69.68471 | 18.91981 | 28 ft | 108 kts | 193° |
| 2026-05-07 13:27 | 69.67982 | 18.91653 | 36 ft | 33 kts | 193° |
| 2026-05-07 13:27 | 69.67831 | 18.91553 | 40 ft | 27 kts | 193° |
| 2026-05-07 13:27 | 69.67733 | 18.91441 | 37 ft | 10 kts | 249° |
| 2026-05-07 13:28 | 69.67745 | 18.91208 | 40 ft | 13 kts | 283° |
| 2026-05-07 13:28 | 69.67832 | 18.91168 | 39 ft | 16 kts | 13° |
| 2026-05-07 13:28 | 69.67959 | 18.91253 | 36 ft | 21 kts | 13° |
| 2026-05-07 13:28 | 69.68024 | 18.91254 | 34 ft | 8 kts | 308° |
| 2026-05-07 13:29 | 69.68037 | 18.91108 | 37 ft | 6 kts | 283° |
| 2026-05-07 13:29 | 69.68046 | 18.90986 | 36 ft | 2 kts | 282° |
| 2026-05-07 13:29 | 69.68048 | 18.90966 | 37 ft | 1 kts | 282° |